createdAt,value
2022-09-22T00:01:33.645Z,11.57
2022-09-22T00:04:05.891Z,11.43
2022-09-22T00:06:36.549Z,13.47
2022-09-22T00:09:06.325Z,7.00
2022-09-22T00:11:37.504Z,11.87
2022-09-22T00:14:09.799Z,8.67
2022-09-22T00:16:40.049Z,11.20
2022-09-22T00:19:11.435Z,10.63
2022-09-22T00:21:39.596Z,14.97
2022-09-22T00:24:08.208Z,14.77
2022-09-22T00:26:38.019Z,12.40
2022-09-22T00:29:09.283Z,14.83
2022-09-22T00:31:39.052Z,12.10
2022-09-22T00:34:09.410Z,12.67
2022-09-22T00:36:37.534Z,12.17
2022-09-22T00:39:05.985Z,12.13
2022-09-22T00:41:36.269Z,11.37
2022-09-22T00:44:31.138Z,11.00
2022-09-22T00:47:03.509Z,13.83
2022-09-22T00:49:38.262Z,10.83
2022-09-22T00:52:07.314Z,11.70
2022-09-22T00:54:36.243Z,12.37
2022-09-22T00:57:09.227Z,12.07
2022-09-22T00:59:38.568Z,13.63
2022-09-22T01:02:07.695Z,12.70
2022-09-22T01:04:37.443Z,11.13
2022-09-22T01:07:06.909Z,12.63
2022-09-22T01:09:35.582Z,9.83
2022-09-22T01:12:05.428Z,9.60
2022-09-22T01:14:53.973Z,12.97
2022-09-22T01:17:32.648Z,10.87
2022-09-22T01:20:40.745Z,13.80
2022-09-22T01:23:42.080Z,12.53
2022-09-22T01:26:26.404Z,12.30
2022-09-22T01:29:24.431Z,8.50
2022-09-22T01:32:01.732Z,6.40
2022-09-22T01:34:33.525Z,11.70
2022-09-22T01:37:10.853Z,15.60
2022-09-22T01:39:43.455Z,9.77
2022-09-22T01:42:16.432Z,11.37
2022-09-22T01:44:50.981Z,11.27
2022-09-22T01:47:24.026Z,9.83
2022-09-22T01:49:54.594Z,13.87
2022-09-22T01:52:27.744Z,10.63
2022-09-22T01:54:59.023Z,12.63
2022-09-22T01:57:34.404Z,11.27
2022-09-22T02:00:06.562Z,8.63
2022-09-22T02:02:48.416Z,10.93
2022-09-22T02:05:22.020Z,10.77
2022-09-22T02:07:54.337Z,12.07
2022-09-22T02:10:33.196Z,7.87
2022-09-22T02:13:02.489Z,12.13
2022-09-22T02:15:48.206Z,11.53
2022-09-22T02:18:26.161Z,9.77
2022-09-22T02:20:54.475Z,13.43
2022-09-22T02:23:22.877Z,10.67
2022-09-22T02:25:52.116Z,10.93
2022-09-22T02:28:22.400Z,17.53
2022-09-22T02:31:17.637Z,11.10
2022-09-22T02:33:43.626Z,13.00
2022-09-22T02:36:26.734Z,8.67
2022-09-22T02:39:00.754Z,12.33
2022-09-22T02:41:37.344Z,10.03
2022-09-22T02:44:11.684Z,10.67
2022-09-22T02:46:44.388Z,11.07
2022-09-22T02:49:17.939Z,11.07
2022-09-22T02:51:49.722Z,13.57
2022-09-22T02:54:18.259Z,9.47
2022-09-22T02:56:46.585Z,9.50
2022-09-22T02:59:15.229Z,11.97
2022-09-22T03:01:43.613Z,9.47
2022-09-22T03:04:13.349Z,11.53
2022-09-22T03:06:41.977Z,14.90
2022-09-22T03:09:10.174Z,8.77
2022-09-22T03:11:38.374Z,9.73
2022-09-22T03:14:06.714Z,11.97
2022-09-22T03:16:35.317Z,7.00
2022-09-22T03:19:03.466Z,8.97
2022-09-22T03:21:33.275Z,13.03
2022-09-22T03:24:01.769Z,9.80
2022-09-22T03:26:30.034Z,8.53
2022-09-22T03:28:58.673Z,8.57
2022-09-22T03:31:26.915Z,12.70
2022-09-22T03:33:55.089Z,8.77
2022-09-22T03:36:23.615Z,8.00
2022-09-22T03:38:53.239Z,10.63
2022-09-22T03:41:21.560Z,9.80
2022-09-22T03:43:50.789Z,9.57
2022-09-22T03:46:19.393Z,14.00
2022-09-22T03:48:47.581Z,13.43
2022-09-22T03:51:16.009Z,9.37
2022-09-22T03:53:44.216Z,15.10
2022-09-22T03:56:16.044Z,9.87
2022-09-22T03:58:45.062Z,11.43
2022-09-22T04:01:13.634Z,13.30
2022-09-22T04:03:42.119Z,12.53
2022-09-22T04:06:11.031Z,9.53
2022-09-22T04:08:39.882Z,9.67
2022-09-22T04:11:08.363Z,13.97
2022-09-22T04:13:41.524Z,8.67
2022-09-22T04:16:12.872Z,15.07
2022-09-22T04:18:41.575Z,13.57
2022-09-22T04:21:10.584Z,10.70
2022-09-22T04:23:38.774Z,14.67
2022-09-22T04:26:07.394Z,12.13
2022-09-22T04:28:36.967Z,12.03
2022-09-22T04:31:05.332Z,12.43
2022-09-22T04:33:33.974Z,10.90
2022-09-22T04:36:02.898Z,10.57
2022-09-22T04:38:31.145Z,9.97
2022-09-22T04:41:01.388Z,8.73
2022-09-22T04:43:30.280Z,6.57
2022-09-22T04:46:00.193Z,13.97
2022-09-22T04:48:28.964Z,11.80
2022-09-22T04:50:57.284Z,11.63
2022-09-22T04:53:25.672Z,20.73
2022-09-22T04:55:54.283Z,18.80
2022-09-22T04:58:22.771Z,18.47
2022-09-22T05:00:51.359Z,19.87
2022-09-22T05:03:22.413Z,16.27
2022-09-22T05:05:50.850Z,15.77
2022-09-22T05:08:19.103Z,18.73
2022-09-22T05:10:47.487Z,15.77
2022-09-22T05:13:15.706Z,16.17
2022-09-22T05:15:44.171Z,15.13
2022-09-22T05:18:12.804Z,14.93
2022-09-22T05:20:44.031Z,13.67
2022-09-22T05:23:12.275Z,14.27
2022-09-22T05:25:40.669Z,16.00
2022-09-22T05:28:09.012Z,12.07
2022-09-22T05:30:37.252Z,13.77
2022-09-22T05:33:05.730Z,20.27
2022-09-22T05:35:36.818Z,13.07
2022-09-22T05:38:06.801Z,14.50
2022-09-22T05:40:35.315Z,14.97
2022-09-22T05:43:03.552Z,13.67
2022-09-22T05:45:31.985Z,12.40
2022-09-22T05:48:00.412Z,15.93
2022-09-22T05:50:28.719Z,17.70
2022-09-22T05:53:04.929Z,12.97
2022-09-22T05:55:34.814Z,16.13
2022-09-22T05:58:03.510Z,14.20
2022-09-22T06:00:32.630Z,14.97
2022-09-22T06:03:01.130Z,18.47
2022-09-22T06:05:29.489Z,15.80
2022-09-22T06:08:03.264Z,13.33
2022-09-22T06:10:34.093Z,17.93
2022-09-22T06:13:03.191Z,15.23
2022-09-22T06:15:33.889Z,14.33
2022-09-22T06:18:02.985Z,17.77
2022-09-22T06:20:31.903Z,16.17
2022-09-22T06:23:00.132Z,16.87
2022-09-22T06:25:29.696Z,15.83
2022-09-22T06:28:05.701Z,16.13
2022-09-22T06:30:35.820Z,17.43
2022-09-22T06:33:04.440Z,17.17
2022-09-22T06:35:35.558Z,16.63
2022-09-22T06:38:05.514Z,14.83
2022-09-22T06:40:36.328Z,19.53
2022-09-22T06:43:10.580Z,18.90
2022-09-22T06:45:39.133Z,16.80
2022-09-22T06:48:10.401Z,18.63
2022-09-22T06:50:41.000Z,16.13
2022-09-22T06:53:12.345Z,19.07
2022-09-22T06:55:43.921Z,18.30
2022-09-22T06:58:15.138Z,13.70
2022-09-22T07:00:45.340Z,20.13
2022-09-22T07:03:20.523Z,11.73
2022-09-22T07:05:56.261Z,11.13
2022-09-22T07:08:26.068Z,14.30
2022-09-22T07:10:56.307Z,12.03
2022-09-22T07:13:27.709Z,13.47
2022-09-22T07:16:01.319Z,12.33
2022-09-22T07:18:30.075Z,14.53
2022-09-22T07:21:03.557Z,14.30
2022-09-22T07:23:34.694Z,14.10
2022-09-22T07:26:04.705Z,11.20
2022-09-22T07:28:35.995Z,9.23
2022-09-22T07:31:06.275Z,7.70
2022-09-22T07:33:34.685Z,10.93
2022-09-22T07:36:05.732Z,7.83
2022-09-22T07:38:36.536Z,10.10
2022-09-22T07:41:06.720Z,13.40
2022-09-22T07:43:36.908Z,9.67
2022-09-22T07:46:06.097Z,7.50
2022-09-22T07:48:38.058Z,15.73
2022-09-22T07:51:12.979Z,14.70
2022-09-22T07:53:45.005Z,11.70
2022-09-22T07:56:15.044Z,10.90
2022-09-22T07:58:50.003Z,14.67
2022-09-22T08:01:19.385Z,13.93
2022-09-22T08:03:47.812Z,12.33
2022-09-22T08:06:18.521Z,10.87
2022-09-22T08:08:52.427Z,8.90
2022-09-22T08:11:23.200Z,10.70
2022-09-22T08:13:55.161Z,10.83
2022-09-22T08:16:26.040Z,9.83
2022-09-22T08:18:56.539Z,12.37
2022-09-22T08:21:25.184Z,7.57
2022-09-22T08:23:54.407Z,15.80
2022-09-22T08:26:23.849Z,7.20
2022-09-22T08:28:54.785Z,6.10
2022-09-22T08:31:24.341Z,12.50
2022-09-22T08:33:54.746Z,11.17
2022-09-22T08:36:24.222Z,6.87
2022-09-22T08:38:52.568Z,11.07
2022-09-22T08:41:30.249Z,6.77
2022-09-22T08:44:05.284Z,7.83
2022-09-22T08:46:35.201Z,6.83
2022-09-22T08:49:26.585Z,9.27
2022-09-22T08:51:57.948Z,4.80
2022-09-22T08:54:28.735Z,6.33
2022-09-22T08:57:16.540Z,8.03
2022-09-22T08:59:52.073Z,5.80
2022-09-22T09:02:34.428Z,9.77
2022-09-22T09:05:39.087Z,7.37
2022-09-22T09:08:16.819Z,10.80
2022-09-22T09:10:54.017Z,7.33
2022-09-22T09:13:38.413Z,8.63
2022-09-22T09:16:21.298Z,9.27
2022-09-22T09:18:58.819Z,6.10
2022-09-22T09:21:29.794Z,8.23
2022-09-22T09:26:52.863Z,6.03
2022-09-22T09:29:27.295Z,5.22
2022-09-22T09:32:00.141Z,9.80
2022-09-22T09:34:29.948Z,8.35
2022-09-22T09:37:08.191Z,5.82
2022-09-22T09:39:38.985Z,5.28
2022-09-22T09:42:20.520Z,7.15
2022-09-22T09:44:53.358Z,3.05
2022-09-22T09:47:48.279Z,8.00
2022-09-22T09:50:17.438Z,4.90
2022-09-22T09:52:47.409Z,6.30
2022-09-22T09:55:26.597Z,3.47
2022-09-22T09:58:10.814Z,7.78
2022-09-22T10:00:56.015Z,4.63
2022-09-22T10:03:30.976Z,5.80
2022-09-22T10:06:02.806Z,5.10
2022-09-22T10:08:36.566Z,5.65
2022-09-22T10:11:05.576Z,6.30
2022-09-22T10:13:36.491Z,3.95
2022-09-22T10:16:30.715Z,8.35
2022-09-22T10:19:22.660Z,3.72
2022-09-22T10:21:50.990Z,6.20
2022-09-22T10:24:31.664Z,3.97
2022-09-22T10:27:02.622Z,6.43
2022-09-22T10:29:34.190Z,5.78
2022-09-22T10:32:14.224Z,6.07
2022-09-22T10:34:47.360Z,6.13
2022-09-22T10:37:18.790Z,5.53
2022-09-22T10:39:50.565Z,6.78
2022-09-22T10:42:32.658Z,0.63
2022-09-22T10:45:04.999Z,8.40
2022-09-22T10:47:52.118Z,4.32
2022-09-22T10:50:59.010Z,7.00
2022-09-22T10:53:39.800Z,6.50
2022-09-22T10:56:20.166Z,3.85
2022-09-22T10:59:17.061Z,5.28
2022-09-22T11:01:59.393Z,5.28
2022-09-22T11:04:54.026Z,4.88
2022-09-22T11:07:55.640Z,7.00
2022-09-22T11:10:49.080Z,0.95
2022-09-22T11:13:37.942Z,3.58
2022-09-22T11:16:27.712Z,7.30
2022-09-22T11:19:24.724Z,5.07
2022-09-22T11:22:07.903Z,4.78
2022-09-22T11:24:53.102Z,6.93
2022-09-22T11:27:27.036Z,7.43
2022-09-22T11:30:20.497Z,6.88
2022-09-22T11:33:34.810Z,7.13
2022-09-22T11:36:24.759Z,6.75
2022-09-22T11:39:08.714Z,4.65
2022-09-22T11:41:42.763Z,6.57
2022-09-22T11:44:29.519Z,1.90
2022-09-22T11:47:20.112Z,5.63
2022-09-22T11:50:05.938Z,6.03
2022-09-22T11:52:46.924Z,6.13
2022-09-22T11:55:25.266Z,4.75
2022-09-22T11:57:59.503Z,4.13
2022-09-22T12:00:35.118Z,4.53
2022-09-22T12:03:10.420Z,6.78
2022-09-22T12:05:42.594Z,4.75
2022-09-22T12:08:14.710Z,5.57
2022-09-22T12:10:47.267Z,5.32
2022-09-22T12:13:20.406Z,6.80
2022-09-22T12:16:02.587Z,5.57
2022-09-22T12:18:40.354Z,12.25
2022-09-22T12:21:24.432Z,11.70
2022-09-22T12:23:54.055Z,9.00
2022-09-22T12:26:33.584Z,6.43
2022-09-22T12:29:10.459Z,4.75
2022-09-22T12:31:40.928Z,4.20
2022-09-22T12:34:20.026Z,5.18
2022-09-22T12:36:52.476Z,6.65
2022-09-22T12:39:23.643Z,5.78
2022-09-22T12:41:58.302Z,4.88
2022-09-22T12:44:30.767Z,5.13
2022-09-22T12:47:02.637Z,8.60
2022-09-22T12:49:32.093Z,6.55
2022-09-22T12:52:00.441Z,10.68
2022-09-22T12:54:46.968Z,6.43
2022-09-22T12:57:28.833Z,5.57
2022-09-22T13:00:14.724Z,5.93
2022-09-22T13:02:45.999Z,4.72
2022-09-22T13:05:34.909Z,9.68
2022-09-22T13:08:04.263Z,2.83
2022-09-22T13:11:01.740Z,8.15
2022-09-22T13:13:44.732Z,5.65
2022-09-22T13:16:47.658Z,6.03
2022-09-22T13:19:16.200Z,4.30
2022-09-22T13:21:44.404Z,6.05
2022-09-22T13:24:26.614Z,3.35
2022-09-22T13:27:05.233Z,5.00
2022-09-22T13:29:34.470Z,4.60
2022-09-22T13:32:18.524Z,4.68
2022-09-22T13:34:47.510Z,2.85
2022-09-22T13:37:20.094Z,6.18
2022-09-22T13:39:50.779Z,4.22
2022-09-22T13:42:22.490Z,3.22
2022-09-22T13:44:58.790Z,5.50
2022-09-22T13:47:28.942Z,3.75
2022-09-22T13:50:02.760Z,8.23
2022-09-22T13:52:33.442Z,6.70
2022-09-22T13:55:09.095Z,5.03
2022-09-22T13:57:38.808Z,5.75
2022-09-22T14:00:09.858Z,6.65
2022-09-22T14:02:45.108Z,11.52
2022-09-22T14:05:20.459Z,7.50
2022-09-22T14:08:10.584Z,8.00
2022-09-22T14:10:38.294Z,4.43
2022-09-22T14:13:06.857Z,6.80
2022-09-22T14:15:43.293Z,8.05
2022-09-22T14:18:18.636Z,5.10
2022-09-22T14:20:48.346Z,5.60
2022-09-22T14:23:22.016Z,5.30
2022-09-22T14:25:50.376Z,12.02
2022-09-22T14:28:23.837Z,9.18
2022-09-22T14:30:52.795Z,3.92
2022-09-22T14:33:25.880Z,7.80
2022-09-22T14:36:01.660Z,8.77
2022-09-22T14:38:34.395Z,5.60
2022-09-22T14:41:03.184Z,6.18
2022-09-22T14:43:35.523Z,7.68
2022-09-22T14:46:21.467Z,8.25
2022-09-22T14:48:51.574Z,9.93
2022-09-22T14:51:22.988Z,10.52
2022-09-22T14:53:55.478Z,9.40
2022-09-22T14:56:27.821Z,8.25
2022-09-22T14:58:58.469Z,6.07
2022-09-22T15:01:47.634Z,8.57
2022-09-22T15:04:23.077Z,11.15
2022-09-22T15:06:52.756Z,6.47
2022-09-22T15:09:25.804Z,6.50
2022-09-22T15:11:56.932Z,7.75
2022-09-22T15:14:33.341Z,9.85
2022-09-22T15:17:21.861Z,4.95
2022-09-22T15:19:57.142Z,5.22
2022-09-22T15:22:27.183Z,12.63
2022-09-22T15:24:55.768Z,5.90
2022-09-22T15:27:24.180Z,4.55
2022-09-22T15:29:54.893Z,7.53
2022-09-22T15:32:23.312Z,4.80
2022-09-22T15:34:52.867Z,5.97
2022-09-22T15:37:22.640Z,16.70
2022-09-22T15:39:51.373Z,7.78
2022-09-22T15:42:22.237Z,3.85
2022-09-22T15:44:50.760Z,8.35
2022-09-22T15:47:19.461Z,3.78
2022-09-22T15:49:47.821Z,7.35
2022-09-22T15:52:17.337Z,5.18
2022-09-22T15:54:48.344Z,9.45
2022-09-22T15:57:17.223Z,5.80
2022-09-22T15:59:46.072Z,5.22
2022-09-22T16:02:15.011Z,6.35
2022-09-22T16:04:44.369Z,9.27
2022-09-22T16:07:15.019Z,6.75
2022-09-22T16:09:44.812Z,2.22
2022-09-22T16:12:15.456Z,9.18
2022-09-22T16:14:43.720Z,5.68
2022-09-22T16:17:12.070Z,3.30
2022-09-22T16:19:42.247Z,9.98
2022-09-22T16:22:10.637Z,9.25
2022-09-22T16:24:39.347Z,6.90
2022-09-22T16:27:09.087Z,5.70
2022-09-22T16:29:37.596Z,3.45
2022-09-22T16:32:06.056Z,5.50
2022-09-22T16:34:35.981Z,4.95
2022-09-22T16:37:04.479Z,5.95
2022-09-22T16:39:33.163Z,6.40
2022-09-22T16:42:01.426Z,11.18
2022-09-22T16:44:31.111Z,16.83
2022-09-22T16:46:59.849Z,12.95
2022-09-22T16:49:28.237Z,9.63
2022-09-22T16:51:56.413Z,6.70
2022-09-22T16:54:26.208Z,10.07
2022-09-22T16:56:54.846Z,10.15
2022-09-22T16:59:23.986Z,10.07
2022-09-22T17:01:53.826Z,6.07
2022-09-22T17:04:22.038Z,14.55
2022-09-22T17:06:51.499Z,10.27
2022-09-22T17:09:20.037Z,6.40
2022-09-22T17:11:50.356Z,8.00
2022-09-22T17:14:21.622Z,8.65
2022-09-22T17:16:52.044Z,10.63
2022-09-22T17:19:25.974Z,6.95
2022-09-22T17:21:56.678Z,7.53
2022-09-22T17:24:27.093Z,7.13
2022-09-22T17:26:57.116Z,10.77
2022-09-22T17:29:27.449Z,6.95
2022-09-22T17:31:59.327Z,7.05
2022-09-22T17:34:30.014Z,7.43
2022-09-22T17:36:59.039Z,8.13
2022-09-22T17:39:29.353Z,5.22
2022-09-22T17:41:58.027Z,9.70
2022-09-22T17:44:28.597Z,8.23
2022-09-22T17:47:14.872Z,8.48
2022-09-22T17:50:02.020Z,9.27
2022-09-22T17:52:47.967Z,10.15
2022-09-22T17:55:21.003Z,9.60
2022-09-22T17:57:50.400Z,12.32
2022-09-22T18:00:20.925Z,9.30
2022-09-22T18:02:50.342Z,7.13
2022-09-22T18:05:22.239Z,7.53
2022-09-22T18:07:53.778Z,8.25
2022-09-22T18:10:22.173Z,15.40
2022-09-22T18:12:50.549Z,12.13
2022-09-22T18:15:20.041Z,13.88
2022-09-22T18:17:48.799Z,6.15
2022-09-22T18:20:20.779Z,10.35
2022-09-22T18:22:52.035Z,8.35
2022-09-22T18:25:23.175Z,7.47
2022-09-22T18:27:53.229Z,8.02
2022-09-22T18:30:21.770Z,8.68
2022-09-22T18:32:50.149Z,7.50
2022-09-22T18:35:18.900Z,12.80
2022-09-22T18:37:48.498Z,6.80
2022-09-22T18:40:18.316Z,11.43
2022-09-22T18:42:46.839Z,14.27
2022-09-22T18:45:15.481Z,8.50
2022-09-22T18:47:44.132Z,8.98
2022-09-22T18:50:13.594Z,9.60
2022-09-22T18:52:44.567Z,12.13
2022-09-22T18:55:14.139Z,7.30
2022-09-22T18:57:44.332Z,7.57
2022-09-22T19:00:14.121Z,7.40
2022-09-22T19:02:42.672Z,5.63
2022-09-22T19:05:11.270Z,12.98
2022-09-22T19:07:43.055Z,12.23
2022-09-22T19:10:13.479Z,9.73
2022-09-22T19:12:43.396Z,12.23
2022-09-22T19:15:15.183Z,11.38
2022-09-22T19:17:45.274Z,9.32
2022-09-22T19:20:15.067Z,11.20
2022-09-22T19:22:44.006Z,9.65
2022-09-22T19:25:13.172Z,13.98
2022-09-22T19:27:43.459Z,16.25
2022-09-22T19:30:12.768Z,7.15
2022-09-22T19:32:41.913Z,12.30
2022-09-22T19:35:10.796Z,9.07
2022-09-22T19:37:41.348Z,9.02
2022-09-22T19:40:13.227Z,9.70
2022-09-22T19:42:42.950Z,15.55
2022-09-22T19:45:11.493Z,7.95
2022-09-22T19:47:40.645Z,12.15
2022-09-22T19:50:10.084Z,13.55
2022-09-22T19:52:38.807Z,14.55
2022-09-22T19:55:08.586Z,13.10
2022-09-22T19:57:41.152Z,11.95
2022-09-22T20:00:17.181Z,12.13
2022-09-22T20:02:46.060Z,11.07
2022-09-22T20:05:22.323Z,13.65
2022-09-22T20:07:50.842Z,14.20
2022-09-22T20:10:22.582Z,14.02
2022-09-22T20:12:50.925Z,10.73
2022-09-22T20:15:21.454Z,11.00
2022-09-22T20:17:49.967Z,13.00
2022-09-22T20:20:20.742Z,13.97
2022-09-22T20:22:53.477Z,13.68
2022-09-22T20:25:24.809Z,19.98
2022-09-22T20:27:53.348Z,18.88
2022-09-22T20:30:24.329Z,18.60
2022-09-22T20:32:53.175Z,15.23
2022-09-22T20:35:22.012Z,16.33
2022-09-22T20:37:51.530Z,15.57
2022-09-22T20:40:22.146Z,18.53
2022-09-22T20:42:52.590Z,16.83
2022-09-22T20:45:24.829Z,16.97
2022-09-22T20:47:53.496Z,15.43
2022-09-22T20:50:22.254Z,14.40
2022-09-22T20:52:50.874Z,11.63
2022-09-22T20:55:19.464Z,17.33
2022-09-22T20:57:47.774Z,16.43
2022-09-22T21:00:16.292Z,23.13
2022-09-22T21:02:46.457Z,19.10
2022-09-22T21:05:14.941Z,16.40
2022-09-22T21:07:43.249Z,17.17
2022-09-22T21:10:29.241Z,19.07
2022-09-22T21:12:58.570Z,15.77
2022-09-22T21:15:27.404Z,20.17
2022-09-22T21:17:56.966Z,17.07
2022-09-22T21:20:27.055Z,16.43
2022-09-22T21:22:55.785Z,20.73
2022-09-22T21:25:25.052Z,19.60
2022-09-22T21:27:53.382Z,17.97
2022-09-22T21:30:21.939Z,19.33
2022-09-22T21:32:50.161Z,22.07
2022-09-22T21:35:19.660Z,15.43
2022-09-22T21:37:48.041Z,18.97
2022-09-22T21:40:17.527Z,19.30
2022-09-22T21:42:45.789Z,17.47
2022-09-22T21:45:14.288Z,16.90
2022-09-22T21:47:42.462Z,19.90
2022-09-22T21:50:11.137Z,18.97
2022-09-22T21:52:40.905Z,16.23
2022-09-22T21:55:09.884Z,17.50
2022-09-22T21:57:38.271Z,18.13
2022-09-22T22:00:08.259Z,14.93
2022-09-22T22:02:54.012Z,19.27
2022-09-22T22:05:23.020Z,18.83
2022-09-22T22:07:52.817Z,20.47
2022-09-22T22:10:21.166Z,18.10
2022-09-22T22:12:49.530Z,20.13
2022-09-22T22:15:17.976Z,18.63
2022-09-22T22:17:46.171Z,18.47
2022-09-22T22:20:14.729Z,21.93
2022-09-22T22:22:42.889Z,31.20
2022-09-22T22:25:17.235Z,24.13
2022-09-22T22:27:45.834Z,22.27
2022-09-22T22:30:14.616Z,20.77
2022-09-22T22:32:43.306Z,24.93
2022-09-22T22:35:12.691Z,26.00
2022-09-22T22:37:40.881Z,22.13
2022-09-22T22:40:10.016Z,20.10
2022-09-22T22:42:39.884Z,21.63
2022-09-22T22:45:08.558Z,20.80
2022-09-22T22:47:36.723Z,23.33
2022-09-22T22:50:06.401Z,25.57
2022-09-22T22:52:37.715Z,19.07
2022-09-22T22:55:07.065Z,24.00
2022-09-22T22:57:35.260Z,23.40
2022-09-22T23:00:05.891Z,21.33
2022-09-22T23:02:35.091Z,21.67
2022-09-22T23:05:03.312Z,21.33
2022-09-22T23:07:31.532Z,22.70
2022-09-22T23:10:07.038Z,27.17
2022-09-22T23:12:35.616Z,21.30
2022-09-22T23:15:06.087Z,22.33
2022-09-22T23:17:36.016Z,21.67
2022-09-22T23:20:05.460Z,26.53
2022-09-22T23:22:34.002Z,21.67
2022-09-22T23:25:02.211Z,26.80
2022-09-22T23:27:31.003Z,18.93
2022-09-22T23:29:59.617Z,24.57
2022-09-22T23:32:29.126Z,24.33
2022-09-22T23:34:57.874Z,22.83
2022-09-22T23:37:26.194Z,22.60
2022-09-22T23:39:54.984Z,27.77
2022-09-22T23:42:24.320Z,27.10
2022-09-22T23:44:53.413Z,18.70
2022-09-22T23:47:21.717Z,28.57
2022-09-22T23:49:51.494Z,21.47
2022-09-22T23:52:19.697Z,22.53
2022-09-22T23:54:47.869Z,22.47
2022-09-22T23:57:16.310Z,24.40
2022-09-22T23:59:44.568Z,25.43
